sensor_id;sensor_type;location;lat;lon;timestamp;temperature;humidity
28532;DHT22;15738;44.860;10.066;2022-10-31T00:02:20;15.00;99.90
28532;DHT22;15738;44.860;10.066;2022-10-31T00:05:06;15.00;99.90
28532;DHT22;15738;44.860;10.066;2022-10-31T00:07:53;15.00;99.90
28532;DHT22;15738;44.860;10.066;2022-10-31T00:10:42;15.00;99.90
28532;DHT22;15738;44.860;10.066;2022-10-31T00:13:28;14.90;99.90
28532;DHT22;15738;44.860;10.066;2022-10-31T00:16:18;14.90;99.90
28532;DHT22;15738;44.860;10.066;2022-10-31T00:19:06;14.90;99.90
28532;DHT22;15738;44.860;10.066;2022-10-31T00:21:52;14.90;99.90
28532;DHT22;15738;44.860;10.066;2022-10-31T00:24:38;14.90;99.90
28532;DHT22;15738;44.860;10.066;2022-10-31T00:27:23;14.90;99.90
28532;DHT22;15738;44.860;10.066;2022-10-31T00:30:12;14.90;99.90
28532;DHT22;15738;44.860;10.066;2022-10-31T00:32:58;14.90;99.90
28532;DHT22;15738;44.860;10.066;2022-10-31T00:35:51;14.90;99.90
28532;DHT22;15738;44.860;10.066;2022-10-31T00:38:37;14.90;99.90
28532;DHT22;15738;44.860;10.066;2022-10-31T00:41:23;14.90;99.90
28532;DHT22;15738;44.860;10.066;2022-10-31T00:44:08;14.90;99.90
28532;DHT22;15738;44.860;10.066;2022-10-31T00:46:54;14.90;99.90
28532;DHT22;15738;44.860;10.066;2022-10-31T00:49:39;14.80;99.90
28532;DHT22;15738;44.860;10.066;2022-10-31T00:52:25;14.80;99.90
28532;DHT22;15738;44.860;10.066;2022-10-31T00:55:10;14.80;99.90
28532;DHT22;15738;44.860;10.066;2022-10-31T00:57:56;14.80;99.90
28532;DHT22;15738;44.860;10.066;2022-10-31T01:00:43;14.80;99.90
28532;DHT22;15738;44.860;10.066;2022-10-31T01:03:33;14.70;99.90
28532;DHT22;15738;44.860;10.066;2022-10-31T01:06:19;14.80;99.90
28532;DHT22;15738;44.860;10.066;2022-10-31T01:09:04;14.70;99.90
28532;DHT22;15738;44.860;10.066;2022-10-31T01:11:50;14.70;99.90
28532;DHT22;15738;44.860;10.066;2022-10-31T01:14:36;14.70;99.90
28532;DHT22;15738;44.860;10.066;2022-10-31T01:17:21;14.70;99.90
28532;DHT22;15738;44.860;10.066;2022-10-31T01:20:08;14.70;99.90
28532;DHT22;15738;44.860;10.066;2022-10-31T01:22:54;14.70;99.90
28532;DHT22;15738;44.860;10.066;2022-10-31T01:25:42;14.70;99.90
28532;DHT22;15738;44.860;10.066;2022-10-31T01:28:27;14.60;99.90
28532;DHT22;15738;44.860;10.066;2022-10-31T01:31:13;14.60;99.90
28532;DHT22;15738;44.860;10.066;2022-10-31T01:33:59;14.60;99.90
28532;DHT22;15738;44.860;10.066;2022-10-31T01:36:46;14.60;99.90
28532;DHT22;15738;44.860;10.066;2022-10-31T01:39:36;14.50;99.90
28532;DHT22;15738;44.860;10.066;2022-10-31T01:42:22;14.50;99.90
28532;DHT22;15738;44.860;10.066;2022-10-31T01:45:10;14.50;99.90
28532;DHT22;15738;44.860;10.066;2022-10-31T01:47:56;14.40;99.90
28532;DHT22;15738;44.860;10.066;2022-10-31T01:50:44;14.40;99.90
28532;DHT22;15738;44.860;10.066;2022-10-31T01:53:33;14.40;99.90
28532;DHT22;15738;44.860;10.066;2022-10-31T01:56:20;14.40;99.90
28532;DHT22;15738;44.860;10.066;2022-10-31T01:59:10;14.40;99.90
28532;DHT22;15738;44.860;10.066;2022-10-31T02:01:59;14.40;99.90
28532;DHT22;15738;44.860;10.066;2022-10-31T02:04:46;14.40;99.90
28532;DHT22;15738;44.860;10.066;2022-10-31T02:07:45;14.40;99.90
28532;DHT22;15738;44.860;10.066;2022-10-31T02:10:36;14.40;99.90
28532;DHT22;15738;44.860;10.066;2022-10-31T02:13:22;14.40;99.90
28532;DHT22;15738;44.860;10.066;2022-10-31T02:16:13;14.40;99.90
28532;DHT22;15738;44.860;10.066;2022-10-31T02:18:59;14.40;99.90
28532;DHT22;15738;44.860;10.066;2022-10-31T02:21:59;14.30;99.90
28532;DHT22;15738;44.860;10.066;2022-10-31T02:30:57;14.30;99.90
28532;DHT22;15738;44.860;10.066;2022-10-31T02:34:01;14.30;99.90
28532;DHT22;15738;44.860;10.066;2022-10-31T02:40:05;14.20;99.90
28532;DHT22;15738;44.860;10.066;2022-10-31T02:43:39;14.20;99.90
28532;DHT22;15738;44.860;10.066;2022-10-31T02:46:48;14.10;99.90
28532;DHT22;15738;44.860;10.066;2022-10-31T02:49:59;14.10;99.90
28532;DHT22;15738;44.860;10.066;2022-10-31T02:52:49;14.10;99.90
28532;DHT22;15738;44.860;10.066;2022-10-31T02:58:22;14.10;99.90
28532;DHT22;15738;44.860;10.066;2022-10-31T03:01:24;13.90;99.90
28532;DHT22;15738;44.860;10.066;2022-10-31T03:10:31;13.80;99.90
28532;DHT22;15738;44.860;10.066;2022-10-31T03:16:48;13.80;99.90
28532;DHT22;15738;44.860;10.066;2022-10-31T03:19:39;13.70;99.90
28532;DHT22;15738;44.860;10.066;2022-10-31T03:22:28;13.70;99.90
28532;DHT22;15738;44.860;10.066;2022-10-31T03:25:17;13.80;99.90
28532;DHT22;15738;44.860;10.066;2022-10-31T03:28:04;13.60;99.90
28532;DHT22;15738;44.860;10.066;2022-10-31T03:30:51;13.70;99.90
28532;DHT22;15738;44.860;10.066;2022-10-31T03:33:39;13.60;99.90
28532;DHT22;15738;44.860;10.066;2022-10-31T03:36:30;13.70;99.90
28532;DHT22;15738;44.860;10.066;2022-10-31T03:39:19;13.60;99.90
28532;DHT22;15738;44.860;10.066;2022-10-31T03:42:10;13.60;99.90
28532;DHT22;15738;44.860;10.066;2022-10-31T03:45:24;13.60;99.90
28532;DHT22;15738;44.860;10.066;2022-10-31T03:48:08;13.60;99.90
28532;DHT22;15738;44.860;10.066;2022-10-31T03:50:57;13.60;99.90
28532;DHT22;15738;44.860;10.066;2022-10-31T03:54:14;13.50;99.90
28532;DHT22;15738;44.860;10.066;2022-10-31T03:57:07;13.50;99.90
28532;DHT22;15738;44.860;10.066;2022-10-31T04:00:11;13.50;99.90
28532;DHT22;15738;44.860;10.066;2022-10-31T04:03:10;13.50;99.90
28532;DHT22;15738;44.860;10.066;2022-10-31T04:06:03;13.50;99.90
28532;DHT22;15738;44.860;10.066;2022-10-31T04:08:58;13.50;99.90
28532;DHT22;15738;44.860;10.066;2022-10-31T04:11:48;13.40;99.90
28532;DHT22;15738;44.860;10.066;2022-10-31T04:14:53;13.40;99.90
28532;DHT22;15738;44.860;10.066;2022-10-31T04:17:42;13.40;99.90
28532;DHT22;15738;44.860;10.066;2022-10-31T04:20:32;13.40;99.90
28532;DHT22;15738;44.860;10.066;2022-10-31T04:23:20;13.40;99.90
28532;DHT22;15738;44.860;10.066;2022-10-31T04:26:11;13.30;99.90
28532;DHT22;15738;44.860;10.066;2022-10-31T04:28:56;13.30;99.90
28532;DHT22;15738;44.860;10.066;2022-10-31T04:31:44;13.30;99.90
28532;DHT22;15738;44.860;10.066;2022-10-31T04:34:30;13.30;99.90
28532;DHT22;15738;44.860;10.066;2022-10-31T04:37:15;13.30;99.90
28532;DHT22;15738;44.860;10.066;2022-10-31T04:40:02;13.30;99.90
28532;DHT22;15738;44.860;10.066;2022-10-31T04:42:58;13.30;99.90
28532;DHT22;15738;44.860;10.066;2022-10-31T04:45:45;13.30;99.90
28532;DHT22;15738;44.860;10.066;2022-10-31T04:48:32;13.30;99.90
28532;DHT22;15738;44.860;10.066;2022-10-31T04:51:19;13.30;99.90
28532;DHT22;15738;44.860;10.066;2022-10-31T04:54:06;13.30;99.90
28532;DHT22;15738;44.860;10.066;2022-10-31T04:56:57;13.20;99.90
28532;DHT22;15738;44.860;10.066;2022-10-31T04:59:45;13.20;99.90
28532;DHT22;15738;44.860;10.066;2022-10-31T05:02:30;13.20;99.90
28532;DHT22;15738;44.860;10.066;2022-10-31T05:05:19;13.20;99.90
28532;DHT22;15738;44.860;10.066;2022-10-31T05:08:06;13.20;99.90
28532;DHT22;15738;44.860;10.066;2022-10-31T05:10:51;13.20;99.90
28532;DHT22;15738;44.860;10.066;2022-10-31T05:13:38;13.20;99.90
28532;DHT22;15738;44.860;10.066;2022-10-31T05:16:46;13.20;99.90
28532;DHT22;15738;44.860;10.066;2022-10-31T05:20:13;13.20;99.90
28532;DHT22;15738;44.860;10.066;2022-10-31T05:23:34;13.10;99.90
28532;DHT22;15738;44.860;10.066;2022-10-31T05:26:20;13.10;99.90
28532;DHT22;15738;44.860;10.066;2022-10-31T05:29:06;13.10;99.90
28532;DHT22;15738;44.860;10.066;2022-10-31T05:31:53;13.10;99.90
28532;DHT22;15738;44.860;10.066;2022-10-31T05:34:58;13.10;99.90
28532;DHT22;15738;44.860;10.066;2022-10-31T05:38:07;13.10;99.90
28532;DHT22;15738;44.860;10.066;2022-10-31T05:40:56;13.10;99.90
28532;DHT22;15738;44.860;10.066;2022-10-31T05:43:51;13.10;99.90
28532;DHT22;15738;44.860;10.066;2022-10-31T05:46:42;13.00;99.90
28532;DHT22;15738;44.860;10.066;2022-10-31T05:49:53;13.00;99.90
28532;DHT22;15738;44.860;10.066;2022-10-31T05:53:04;13.00;99.90
28532;DHT22;15738;44.860;10.066;2022-10-31T05:55:55;13.00;99.90
28532;DHT22;15738;44.860;10.066;2022-10-31T05:58:41;12.90;99.90
28532;DHT22;15738;44.860;10.066;2022-10-31T06:01:26;13.00;99.90
28532;DHT22;15738;44.860;10.066;2022-10-31T06:04:15;13.00;99.90
28532;DHT22;15738;44.860;10.066;2022-10-31T06:07:00;13.00;99.90
28532;DHT22;15738;44.860;10.066;2022-10-31T06:09:46;13.00;99.90
28532;DHT22;15738;44.860;10.066;2022-10-31T06:12:33;13.00;99.90
28532;DHT22;15738;44.860;10.066;2022-10-31T06:15:36;13.00;99.90
28532;DHT22;15738;44.860;10.066;2022-10-31T06:18:25;13.00;99.90
28532;DHT22;15738;44.860;10.066;2022-10-31T06:21:12;13.00;99.90
28532;DHT22;15738;44.860;10.066;2022-10-31T06:24:05;13.00;99.90
28532;DHT22;15738;44.860;10.066;2022-10-31T06:27:20;13.00;99.90
28532;DHT22;15738;44.860;10.066;2022-10-31T06:30:07;13.10;99.90
28532;DHT22;15738;44.860;10.066;2022-10-31T06:32:54;13.20;99.90
28532;DHT22;15738;44.860;10.066;2022-10-31T06:35:45;13.20;99.90
28532;DHT22;15738;44.860;10.066;2022-10-31T06:38:32;13.20;99.90
28532;DHT22;15738;44.860;10.066;2022-10-31T06:41:18;13.30;99.90
28532;DHT22;15738;44.860;10.066;2022-10-31T06:44:07;13.50;99.90
28532;DHT22;15738;44.860;10.066;2022-10-31T06:47:12;14.10;99.90
28532;DHT22;15738;44.860;10.066;2022-10-31T06:50:24;14.70;99.90
28532;DHT22;15738;44.860;10.066;2022-10-31T06:53:10;14.80;99.90
28532;DHT22;15738;44.860;10.066;2022-10-31T06:55:57;14.70;99.90
28532;DHT22;15738;44.860;10.066;2022-10-31T06:58:43;14.70;99.90
28532;DHT22;15738;44.860;10.066;2022-10-31T07:01:31;14.70;99.90
28532;DHT22;15738;44.860;10.066;2022-10-31T07:04:17;14.90;99.90
28532;DHT22;15738;44.860;10.066;2022-10-31T07:07:02;15.00;99.90
28532;DHT22;15738;44.860;10.066;2022-10-31T07:09:49;15.20;99.90
28532;DHT22;15738;44.860;10.066;2022-10-31T07:12:39;15.40;99.90
28532;DHT22;15738;44.860;10.066;2022-10-31T07:15:26;15.70;99.90
28532;DHT22;15738;44.860;10.066;2022-10-31T07:18:13;16.00;99.90
28532;DHT22;15738;44.860;10.066;2022-10-31T07:20:59;16.30;99.90
28532;DHT22;15738;44.860;10.066;2022-10-31T07:23:47;16.60;99.90
28532;DHT22;15738;44.860;10.066;2022-10-31T07:26:52;16.90;99.90
28532;DHT22;15738;44.860;10.066;2022-10-31T07:29:37;17.00;99.90
28532;DHT22;15738;44.860;10.066;2022-10-31T07:32:23;17.30;99.90
28532;DHT22;15738;44.860;10.066;2022-10-31T07:35:23;17.50;99.90
28532;DHT22;15738;44.860;10.066;2022-10-31T07:38:14;17.70;99.90
28532;DHT22;15738;44.860;10.066;2022-10-31T07:41:02;16.60;99.90
28532;DHT22;15738;44.860;10.066;2022-10-31T07:43:50;17.80;99.90
28532;DHT22;15738;44.860;10.066;2022-10-31T07:46:35;17.80;99.90
28532;DHT22;15738;44.860;10.066;2022-10-31T07:49:40;17.80;99.90
28532;DHT22;15738;44.860;10.066;2022-10-31T07:53:07;17.60;99.90
28532;DHT22;15738;44.860;10.066;2022-10-31T07:56:02;17.60;99.90
28532;DHT22;15738;44.860;10.066;2022-10-31T07:58:48;17.70;99.90
28532;DHT22;15738;44.860;10.066;2022-10-31T08:01:33;17.80;99.90
28532;DHT22;15738;44.860;10.066;2022-10-31T08:04:39;17.90;99.90
28532;DHT22;15738;44.860;10.066;2022-10-31T08:07:44;17.90;99.90
28532;DHT22;15738;44.860;10.066;2022-10-31T08:10:37;17.80;99.90
28532;DHT22;15738;44.860;10.066;2022-10-31T08:13:22;17.70;99.90
28532;DHT22;15738;44.860;10.066;2022-10-31T08:16:09;17.70;99.90
28532;DHT22;15738;44.860;10.066;2022-10-31T08:19:06;17.80;99.90
28532;DHT22;15738;44.860;10.066;2022-10-31T08:21:56;17.80;99.90
28532;DHT22;15738;44.860;10.066;2022-10-31T08:24:41;17.70;99.90
28532;DHT22;15738;44.860;10.066;2022-10-31T08:27:27;17.70;99.90
28532;DHT22;15738;44.860;10.066;2022-10-31T08:30:17;17.70;99.90
28532;DHT22;15738;44.860;10.066;2022-10-31T08:33:16;17.70;99.90
28532;DHT22;15738;44.860;10.066;2022-10-31T08:36:31;17.70;99.90
28532;DHT22;15738;44.860;10.066;2022-10-31T08:39:32;17.70;99.90
28532;DHT22;15738;44.860;10.066;2022-10-31T08:42:17;17.80;99.90
28532;DHT22;15738;44.860;10.066;2022-10-31T08:45:04;17.80;99.90
28532;DHT22;15738;44.860;10.066;2022-10-31T08:47:51;17.90;99.90
28532;DHT22;15738;44.860;10.066;2022-10-31T08:50:38;17.80;99.90
28532;DHT22;15738;44.860;10.066;2022-10-31T08:53:25;17.80;99.90
28532;DHT22;15738;44.860;10.066;2022-10-31T08:56:27;17.80;99.90
28532;DHT22;15738;44.860;10.066;2022-10-31T08:59:12;17.90;99.90
28532;DHT22;15738;44.860;10.066;2022-10-31T09:02:18;17.90;99.90
28532;DHT22;15738;44.860;10.066;2022-10-31T09:05:04;18.00;99.90
28532;DHT22;15738;44.860;10.066;2022-10-31T09:07:49;18.10;99.90
28532;DHT22;15738;44.860;10.066;2022-10-31T09:10:36;18.10;99.90
28532;DHT22;15738;44.860;10.066;2022-10-31T09:13:23;18.10;99.90
28532;DHT22;15738;44.860;10.066;2022-10-31T09:16:35;18.10;99.90
28532;DHT22;15738;44.860;10.066;2022-10-31T09:19:23;18.20;99.90
28532;DHT22;15738;44.860;10.066;2022-10-31T09:22:08;18.30;99.90
28532;DHT22;15738;44.860;10.066;2022-10-31T09:24:54;18.30;99.90
28532;DHT22;15738;44.860;10.066;2022-10-31T09:27:40;18.40;99.90
28532;DHT22;15738;44.860;10.066;2022-10-31T09:30:27;18.50;99.90
28532;DHT22;15738;44.860;10.066;2022-10-31T09:33:13;18.50;99.90
28532;DHT22;15738;44.860;10.066;2022-10-31T09:36:06;18.60;99.90
28532;DHT22;15738;44.860;10.066;2022-10-31T09:38:57;18.70;99.90
28532;DHT22;15738;44.860;10.066;2022-10-31T09:41:50;18.90;99.90
28532;DHT22;15738;44.860;10.066;2022-10-31T09:44:47;19.00;99.90
28532;DHT22;15738;44.860;10.066;2022-10-31T09:51:10;19.50;99.90
28532;DHT22;15738;44.860;10.066;2022-10-31T09:56:47;19.90;99.90
28532;DHT22;15738;44.860;10.066;2022-10-31T09:59:39;19.90;99.90
28532;DHT22;15738;44.860;10.066;2022-10-31T10:05:33;20.10;99.90
28532;DHT22;15738;44.860;10.066;2022-10-31T10:08:30;20.10;99.90
28532;DHT22;15738;44.860;10.066;2022-10-31T10:21:01;20.10;99.90
28532;DHT22;15738;44.860;10.066;2022-10-31T10:26:44;20.10;99.90
28532;DHT22;15738;44.860;10.066;2022-10-31T10:32:23;20.20;99.90
28532;DHT22;15738;44.860;10.066;2022-10-31T10:36:00;20.30;99.90
28532;DHT22;15738;44.860;10.066;2022-10-31T10:38:59;20.40;99.90
28532;DHT22;15738;44.860;10.066;2022-10-31T10:41:48;20.40;99.90
28532;DHT22;15738;44.860;10.066;2022-10-31T10:44:53;20.50;99.90
28532;DHT22;15738;44.860;10.066;2022-10-31T10:52:15;20.60;99.90
28532;DHT22;15738;44.860;10.066;2022-10-31T10:58:08;20.70;99.90
28532;DHT22;15738;44.860;10.066;2022-10-31T11:00:55;20.80;99.90
28532;DHT22;15738;44.860;10.066;2022-10-31T11:03:41;20.80;99.90
28532;DHT22;15738;44.860;10.066;2022-10-31T11:06:27;20.90;99.90
28532;DHT22;15738;44.860;10.066;2022-10-31T11:09:15;21.00;99.90
28532;DHT22;15738;44.860;10.066;2022-10-31T11:12:22;21.00;99.90
28532;DHT22;15738;44.860;10.066;2022-10-31T11:15:22;21.10;99.90
28532;DHT22;15738;44.860;10.066;2022-10-31T11:18:20;21.10;99.90
28532;DHT22;15738;44.860;10.066;2022-10-31T11:21:27;21.20;99.90
28532;DHT22;15738;44.860;10.066;2022-10-31T11:24:19;21.20;99.90
28532;DHT22;15738;44.860;10.066;2022-10-31T11:27:19;21.20;99.90
28532;DHT22;15738;44.860;10.066;2022-10-31T11:30:06;21.20;99.90
28532;DHT22;15738;44.860;10.066;2022-10-31T11:32:52;21.20;99.90
28532;DHT22;15738;44.860;10.066;2022-10-31T11:35:39;21.20;99.90
28532;DHT22;15738;44.860;10.066;2022-10-31T11:38:33;21.30;99.90
28532;DHT22;15738;44.860;10.066;2022-10-31T11:41:27;21.30;99.90
28532;DHT22;15738;44.860;10.066;2022-10-31T11:47:06;21.40;99.90
28532;DHT22;15738;44.860;10.066;2022-10-31T11:49:57;21.40;99.90
28532;DHT22;15738;44.860;10.066;2022-10-31T11:52:46;21.50;99.90
28532;DHT22;15738;44.860;10.066;2022-10-31T11:55:36;21.50;99.90
28532;DHT22;15738;44.860;10.066;2022-10-31T11:58:24;21.60;99.90
28532;DHT22;15738;44.860;10.066;2022-10-31T12:01:26;21.50;99.90
28532;DHT22;15738;44.860;10.066;2022-10-31T12:04:12;21.60;99.90
28532;DHT22;15738;44.860;10.066;2022-10-31T12:06:58;21.70;99.90
28532;DHT22;15738;44.860;10.066;2022-10-31T12:09:44;21.60;99.90
28532;DHT22;15738;44.860;10.066;2022-10-31T12:15:34;21.70;99.90
28532;DHT22;15738;44.860;10.066;2022-10-31T12:40:53;21.80;99.90
28532;DHT22;15738;44.860;10.066;2022-10-31T12:44:04;21.80;99.90
28532;DHT22;15738;44.860;10.066;2022-10-31T13:02:30;21.70;99.90
28532;DHT22;15738;44.860;10.066;2022-10-31T13:08:09;21.60;99.90
28532;DHT22;15738;44.860;10.066;2022-10-31T13:11:21;21.60;99.90
28532;DHT22;15738;44.860;10.066;2022-10-31T13:14:46;21.60;99.90
28532;DHT22;15738;44.860;10.066;2022-10-31T13:17:39;21.60;99.90
28532;DHT22;15738;44.860;10.066;2022-10-31T13:23:30;21.60;99.90
28532;DHT22;15738;44.860;10.066;2022-10-31T13:26:47;21.60;99.90
28532;DHT22;15738;44.860;10.066;2022-10-31T13:29:58;21.70;99.90
28532;DHT22;15738;44.860;10.066;2022-10-31T13:35:54;21.70;99.90
28532;DHT22;15738;44.860;10.066;2022-10-31T13:39:30;21.70;99.90
28532;DHT22;15738;44.860;10.066;2022-10-31T13:42:08;21.70;99.90
28532;DHT22;15738;44.860;10.066;2022-10-31T13:45:17;21.70;99.90
28532;DHT22;15738;44.860;10.066;2022-10-31T13:51:06;21.70;99.90
28532;DHT22;15738;44.860;10.066;2022-10-31T13:54:00;21.60;99.90
28532;DHT22;15738;44.860;10.066;2022-10-31T13:56:51;21.50;99.90
28532;DHT22;15738;44.860;10.066;2022-10-31T13:59:37;21.40;99.90
28532;DHT22;15738;44.860;10.066;2022-10-31T14:02:31;21.30;99.90
28532;DHT22;15738;44.860;10.066;2022-10-31T14:05:23;21.20;99.90
28532;DHT22;15738;44.860;10.066;2022-10-31T14:08:19;21.10;99.90
28532;DHT22;15738;44.860;10.066;2022-10-31T14:11:07;21.10;99.90
28532;DHT22;15738;44.860;10.066;2022-10-31T14:13:55;21.00;99.90
28532;DHT22;15738;44.860;10.066;2022-10-31T14:16:44;21.00;99.90
28532;DHT22;15738;44.860;10.066;2022-10-31T14:19:33;20.90;99.90
28532;DHT22;15738;44.860;10.066;2022-10-31T14:22:21;20.90;99.90
28532;DHT22;15738;44.860;10.066;2022-10-31T14:28:32;20.90;99.90
28532;DHT22;15738;44.860;10.066;2022-10-31T14:31:39;20.90;99.90
28532;DHT22;15738;44.860;10.066;2022-10-31T14:34:32;20.90;99.90
28532;DHT22;15738;44.860;10.066;2022-10-31T14:46:37;20.90;99.90
28532;DHT22;15738;44.860;10.066;2022-10-31T14:52:36;20.80;99.90
28532;DHT22;15738;44.860;10.066;2022-10-31T14:55:23;20.80;99.90
28532;DHT22;15738;44.860;10.066;2022-10-31T14:58:15;20.80;99.90
28532;DHT22;15738;44.860;10.066;2022-10-31T15:01:03;20.80;99.90
28532;DHT22;15738;44.860;10.066;2022-10-31T15:03:50;20.80;99.90
28532;DHT22;15738;44.860;10.066;2022-10-31T15:10:21;20.80;99.90
28532;DHT22;15738;44.860;10.066;2022-10-31T15:13:17;20.70;99.90
28532;DHT22;15738;44.860;10.066;2022-10-31T15:16:08;20.70;99.90
28532;DHT22;15738;44.860;10.066;2022-10-31T15:18:58;20.70;99.90
28532;DHT22;15738;44.860;10.066;2022-10-31T15:21:44;20.60;99.90
28532;DHT22;15738;44.860;10.066;2022-10-31T15:24:37;20.50;99.90
28532;DHT22;15738;44.860;10.066;2022-10-31T15:27:24;20.50;99.90
28532;DHT22;15738;44.860;10.066;2022-10-31T15:30:22;20.40;99.90
28532;DHT22;15738;44.860;10.066;2022-10-31T15:33:28;20.40;99.90
28532;DHT22;15738;44.860;10.066;2022-10-31T15:36:23;20.30;99.90
28532;DHT22;15738;44.860;10.066;2022-10-31T15:39:14;20.30;99.90
28532;DHT22;15738;44.860;10.066;2022-10-31T15:42:01;20.20;99.90
28532;DHT22;15738;44.860;10.066;2022-10-31T15:44:56;20.10;99.90
28532;DHT22;15738;44.860;10.066;2022-10-31T15:50:44;20.00;99.90
28532;DHT22;15738;44.860;10.066;2022-10-31T15:53:49;20.00;99.90
28532;DHT22;15738;44.860;10.066;2022-10-31T15:56:35;19.90;99.90
28532;DHT22;15738;44.860;10.066;2022-10-31T15:59:26;19.80;99.90
28532;DHT22;15738;44.860;10.066;2022-10-31T16:02:14;19.70;99.90
28532;DHT22;15738;44.860;10.066;2022-10-31T16:05:01;19.60;99.90
28532;DHT22;15738;44.860;10.066;2022-10-31T16:07:51;19.50;99.90
28532;DHT22;15738;44.860;10.066;2022-10-31T16:10:37;19.40;99.90
28532;DHT22;15738;44.860;10.066;2022-10-31T16:13:28;19.40;99.90
28532;DHT22;15738;44.860;10.066;2022-10-31T16:16:15;19.30;99.90
28532;DHT22;15738;44.860;10.066;2022-10-31T16:22:18;19.10;99.90
28532;DHT22;15738;44.860;10.066;2022-10-31T16:28:02;18.90;99.90
28532;DHT22;15738;44.860;10.066;2022-10-31T16:30:49;18.80;99.90
28532;DHT22;15738;44.860;10.066;2022-10-31T16:33:37;18.80;99.90
28532;DHT22;15738;44.860;10.066;2022-10-31T16:36:29;18.70;99.90
28532;DHT22;15738;44.860;10.066;2022-10-31T16:39:21;18.60;99.90
28532;DHT22;15738;44.860;10.066;2022-10-31T16:42:08;18.60;99.90
28532;DHT22;15738;44.860;10.066;2022-10-31T16:44:54;18.50;99.90
28532;DHT22;15738;44.860;10.066;2022-10-31T16:47:39;18.50;99.90
28532;DHT22;15738;44.860;10.066;2022-10-31T16:50:26;18.40;99.90
28532;DHT22;15738;44.860;10.066;2022-10-31T16:53:13;18.30;99.90
28532;DHT22;15738;44.860;10.066;2022-10-31T16:56:02;18.30;99.90
28532;DHT22;15738;44.860;10.066;2022-10-31T16:58:49;18.20;99.90
28532;DHT22;15738;44.860;10.066;2022-10-31T17:01:35;18.20;99.90
28532;DHT22;15738;44.860;10.066;2022-10-31T17:04:21;18.10;99.90
28532;DHT22;15738;44.860;10.066;2022-10-31T17:07:06;18.10;99.90
28532;DHT22;15738;44.860;10.066;2022-10-31T17:09:52;18.10;99.90
28532;DHT22;15738;44.860;10.066;2022-10-31T17:12:40;18.00;99.90
28532;DHT22;15738;44.860;10.066;2022-10-31T17:15:27;18.00;99.90
28532;DHT22;15738;44.860;10.066;2022-10-31T17:18:15;17.90;99.90
28532;DHT22;15738;44.860;10.066;2022-10-31T17:21:02;17.80;99.90
28532;DHT22;15738;44.860;10.066;2022-10-31T17:23:51;17.80;99.90
28532;DHT22;15738;44.860;10.066;2022-10-31T17:26:36;17.80;99.90
28532;DHT22;15738;44.860;10.066;2022-10-31T17:29:22;17.70;99.90
28532;DHT22;15738;44.860;10.066;2022-10-31T17:32:08;17.60;99.90
28532;DHT22;15738;44.860;10.066;2022-10-31T17:34:53;17.50;99.90
28532;DHT22;15738;44.860;10.066;2022-10-31T17:37:40;17.50;99.90
28532;DHT22;15738;44.860;10.066;2022-10-31T17:40:27;17.40;99.90
28532;DHT22;15738;44.860;10.066;2022-10-31T17:43:12;17.40;99.90
28532;DHT22;15738;44.860;10.066;2022-10-31T17:45:59;17.30;99.90
28532;DHT22;15738;44.860;10.066;2022-10-31T17:48:45;17.30;99.90
28532;DHT22;15738;44.860;10.066;2022-10-31T17:51:31;17.10;99.90
28532;DHT22;15738;44.860;10.066;2022-10-31T17:54:17;17.10;99.90
28532;DHT22;15738;44.860;10.066;2022-10-31T17:57:07;17.10;99.90
28532;DHT22;15738;44.860;10.066;2022-10-31T17:59:52;17.00;99.90
28532;DHT22;15738;44.860;10.066;2022-10-31T18:02:38;17.00;99.90
28532;DHT22;15738;44.860;10.066;2022-10-31T18:05:24;17.00;99.90
28532;DHT22;15738;44.860;10.066;2022-10-31T18:08:09;16.90;99.90
28532;DHT22;15738;44.860;10.066;2022-10-31T18:10:55;16.90;99.90
28532;DHT22;15738;44.860;10.066;2022-10-31T18:13:44;16.80;99.90
28532;DHT22;15738;44.860;10.066;2022-10-31T18:16:30;16.80;99.90
28532;DHT22;15738;44.860;10.066;2022-10-31T18:19:15;16.70;99.90
28532;DHT22;15738;44.860;10.066;2022-10-31T18:22:01;16.70;99.90
28532;DHT22;15738;44.860;10.066;2022-10-31T18:24:47;16.70;99.90
28532;DHT22;15738;44.860;10.066;2022-10-31T18:27:33;16.60;99.90
28532;DHT22;15738;44.860;10.066;2022-10-31T18:30:19;16.70;99.90
28532;DHT22;15738;44.860;10.066;2022-10-31T18:33:04;16.60;99.90
28532;DHT22;15738;44.860;10.066;2022-10-31T18:35:50;16.50;99.90
28532;DHT22;15738;44.860;10.066;2022-10-31T18:38:40;16.50;99.90
28532;DHT22;15738;44.860;10.066;2022-10-31T18:41:26;16.50;99.90
28532;DHT22;15738;44.860;10.066;2022-10-31T18:44:12;16.50;99.90
28532;DHT22;15738;44.860;10.066;2022-10-31T18:46:58;16.40;99.90
28532;DHT22;15738;44.860;10.066;2022-10-31T18:49:44;16.40;99.90
28532;DHT22;15738;44.860;10.066;2022-10-31T18:52:30;16.40;99.90
28532;DHT22;15738;44.860;10.066;2022-10-31T18:55:16;16.30;99.90
28532;DHT22;15738;44.860;10.066;2022-10-31T18:58:02;16.20;99.90
28532;DHT22;15738;44.860;10.066;2022-10-31T19:00:47;16.20;99.90
28532;DHT22;15738;44.860;10.066;2022-10-31T19:03:33;16.20;99.90
28532;DHT22;15738;44.860;10.066;2022-10-31T19:06:19;16.20;99.90
28532;DHT22;15738;44.860;10.066;2022-10-31T19:09:06;16.10;99.90
28532;DHT22;15738;44.860;10.066;2022-10-31T19:11:55;16.10;99.90
28532;DHT22;15738;44.860;10.066;2022-10-31T19:14:40;16.10;99.90
28532;DHT22;15738;44.860;10.066;2022-10-31T19:17:26;16.10;99.90
28532;DHT22;15738;44.860;10.066;2022-10-31T19:20:12;16.00;99.90
28532;DHT22;15738;44.860;10.066;2022-10-31T19:22:58;16.00;99.90
28532;DHT22;15738;44.860;10.066;2022-10-31T19:25:44;16.00;99.90
28532;DHT22;15738;44.860;10.066;2022-10-31T19:28:31;16.00;99.90
28532;DHT22;15738;44.860;10.066;2022-10-31T19:31:17;15.90;99.90
28532;DHT22;15738;44.860;10.066;2022-10-31T19:34:03;16.00;99.90
28532;DHT22;15738;44.860;10.066;2022-10-31T19:36:49;16.00;99.90
28532;DHT22;15738;44.860;10.066;2022-10-31T19:39:35;16.00;99.90
28532;DHT22;15738;44.860;10.066;2022-10-31T19:42:28;16.00;99.90
28532;DHT22;15738;44.860;10.066;2022-10-31T19:45:14;16.00;99.90
28532;DHT22;15738;44.860;10.066;2022-10-31T19:48:00;16.00;99.90
28532;DHT22;15738;44.860;10.066;2022-10-31T19:50:46;15.90;99.90
28532;DHT22;15738;44.860;10.066;2022-10-31T19:53:33;15.90;99.90
28532;DHT22;15738;44.860;10.066;2022-10-31T19:56:20;15.90;99.90
28532;DHT22;15738;44.860;10.066;2022-10-31T19:59:06;15.90;99.90
28532;DHT22;15738;44.860;10.066;2022-10-31T20:01:52;15.90;99.90